Ostrander, MN (55961)

10:33 PM CDT on September 30, 2016 (GMT -0500)
IEM | | Change Station

Elev 1322 ft 43.71 °N, 92.50 °W | Updated 24 minutes ago

Overcast
Overcast
61 °F
Feels Like 61 °F
N
0
Wind Variable Wind from North
Gusts 0.0 mph

Today
High -- | Low -- °F
--% Chance of Precip.
Yesterday
High -- | Low -- °F
Precip. -- in
Pressure 30.20 in
Visibility 10.0 miles
Clouds Overcast 3400 ft
Dew Point 59 °F
Humidity 94%
Rainfall in
Snow Depth Not available.
7:06 AM 6:51 PM
New Moon, 0% visible
METAR KFKA 010314Z AUTO 06003KT 10SM OVC034 15/12 A3020 RMK AO2 T01500123
Pressure 30.20 in
Visibility 10.0 miles
Clouds Overcast 3400 ft
Dew Point 59 °F
Humidity 94%
Rainfall in
Snow Depth Not available.
7:06 AM 6:51 PM
New Moon, 0% visible
METAR KFKA 010314Z AUTO 06003KT 10SM OVC034 15/12 A3020 RMK AO2 T01500123

10-Day Weather Forecast

Almanac

Astronomy

Sep. 30, 2016 Rise Set
Actual Time
Civil Twilight
Nautical Twilight
Astronomical Twilight
Moon
Length of Visible Light
Length of Day
Tomorrow will be .
, % of the Moon is Illuminated

Today's Extremes

State Highs State Lows

Community

WunderPhotos

Upload Photos

1,942,883 photos uploaded!

WunderBlog® & News

Nearby

Air Quality

  Air Quality AQ Index Pollutant
Not available.

Snow Depth

Station Depth Elevation

Earthquake Activity

City Distance Mag. Time & Date
Minimum magnitude displayed is 2.5.

Coastal Water Temperatures

Place Temperature

Stations

Nearby Weather Stations

Station Location Temp. Windchill Dew Point Humidity Wind Precip. Elev Updated Type
                   

Watches & Warnings

There are currently no watches in effect.